createdAt,value
2023-04-02T00:00:25.178Z,11.30
2023-04-02T00:03:03.688Z,11.38
2023-04-02T00:05:55.781Z,10.68
2023-04-02T00:08:30.499Z,10.65
2023-04-02T00:11:01.152Z,12.55
2023-04-02T00:13:37.088Z,11.18
2023-04-02T00:16:09.346Z,12.63
2023-04-02T00:18:43.631Z,9.38
2023-04-02T00:21:27.078Z,11.18
2023-04-02T00:24:00.158Z,13.18
2023-04-02T00:26:33.758Z,16.75
2023-04-02T00:29:04.893Z,15.30
2023-04-02T00:31:34.283Z,18.85
2023-04-02T00:34:05.577Z,18.27
2023-04-02T00:36:37.729Z,16.27
2023-04-02T00:39:21.404Z,20.30
2023-04-02T00:41:54.553Z,17.88
2023-04-02T00:44:23.728Z,18.10
2023-04-02T00:46:53.374Z,19.50
2023-04-02T00:49:30.577Z,21.67
2023-04-02T00:52:02.722Z,21.10
2023-04-02T00:54:38.698Z,19.02
2023-04-02T00:57:17.866Z,16.50
2023-04-02T00:59:56.557Z,16.17
2023-04-02T01:02:31.632Z,16.67
2023-04-02T01:05:02.245Z,17.25
2023-04-02T01:08:03.239Z,19.20
2023-04-02T01:10:54.091Z,18.00
2023-04-02T01:13:31.926Z,18.35
2023-04-02T01:16:07.286Z,21.63
2023-04-02T01:18:51.656Z,18.63
2023-04-02T01:21:37.972Z,12.48
2023-04-02T01:24:10.084Z,11.68
2023-04-02T01:26:53.217Z,12.10
2023-04-02T01:29:28.501Z,12.85
2023-04-02T01:32:03.392Z,12.35
2023-04-02T01:34:37.898Z,10.70
2023-04-02T01:37:34.750Z,12.35
2023-04-02T01:40:24.785Z,14.55
2023-04-02T01:43:04.160Z,15.70
2023-04-02T01:45:35.802Z,18.40
2023-04-02T01:48:10.374Z,17.63
2023-04-02T01:50:41.623Z,17.80
2023-04-02T01:53:13.435Z,17.35
2023-04-02T01:55:48.742Z,15.68
2023-04-02T01:58:24.026Z,11.52
2023-04-02T02:01:00.884Z,10.77
2023-04-02T02:03:29.855Z,10.52
2023-04-02T02:05:58.851Z,12.20
2023-04-02T02:08:38.089Z,11.52
2023-04-02T02:11:09.585Z,10.60
2023-04-02T02:13:39.454Z,13.57
2023-04-02T02:16:18.195Z,14.35
2023-04-02T02:18:50.737Z,14.77
2023-04-02T02:21:33.196Z,14.98
2023-04-02T02:24:04.735Z,18.20
2023-04-02T02:26:35.858Z,16.52
2023-04-02T02:29:07.765Z,17.50
2023-04-02T02:31:41.818Z,15.20
2023-04-02T02:34:19.078Z,11.85
2023-04-02T02:36:53.938Z,12.88
2023-04-02T02:39:28.021Z,11.52
2023-04-02T02:42:01.864Z,11.20
2023-04-02T02:44:34.435Z,13.05
2023-04-02T02:47:11.204Z,12.85
2023-04-02T02:49:43.795Z,12.45
2023-04-02T02:55:01.277Z,14.20
2023-04-02T02:57:43.590Z,14.50
2023-04-02T03:00:15.846Z,13.50
2023-04-02T03:02:45.924Z,14.55
2023-04-02T03:05:20.520Z,15.75
2023-04-02T03:07:53.294Z,18.30
2023-04-02T03:10:30.903Z,16.57
2023-04-02T03:13:09.062Z,17.83
2023-04-02T03:15:43.474Z,18.73
2023-04-02T03:18:20.791Z,18.63
2023-04-02T03:20:53.808Z,19.30
2023-04-02T03:23:28.444Z,19.92
2023-04-02T03:26:03.414Z,20.75
2023-04-02T03:28:37.347Z,16.65
2023-04-02T03:31:11.980Z,18.80
2023-04-02T03:33:46.550Z,17.98
2023-04-02T03:36:24.273Z,16.65
2023-04-02T03:38:57.946Z,17.90
2023-04-02T03:41:34.352Z,17.08
2023-04-02T03:44:12.470Z,16.58
2023-04-02T03:46:46.701Z,15.52
2023-04-02T03:49:26.466Z,14.13
2023-04-02T03:52:01.785Z,14.45
2023-04-02T03:54:30.224Z,15.05
2023-04-02T03:56:59.694Z,13.23
2023-04-02T03:59:40.941Z,12.30
2023-04-02T04:02:35.640Z,11.68
2023-04-02T04:05:16.975Z,13.45
2023-04-02T04:07:46.060Z,14.18
2023-04-02T04:10:21.710Z,14.25
2023-04-02T04:12:52.942Z,13.27
2023-04-02T04:15:29.989Z,13.43
2023-04-02T04:18:04.352Z,16.35
2023-04-02T04:20:51.150Z,18.05
2023-04-02T04:23:30.066Z,16.17
2023-04-02T04:26:05.453Z,16.63
2023-04-02T04:28:44.407Z,17.08
2023-04-02T04:31:24.603Z,16.20
2023-04-02T04:34:03.013Z,15.57
2023-04-02T04:36:41.560Z,15.90
2023-04-02T04:39:21.366Z,16.65
2023-04-02T04:41:53.442Z,15.27
2023-04-02T04:44:26.447Z,14.48
2023-04-02T04:47:03.716Z,14.93
2023-04-02T04:49:37.225Z,18.35
2023-04-02T04:52:14.902Z,15.50
2023-04-02T04:54:43.730Z,14.95
2023-04-02T04:57:28.299Z,16.25
2023-04-02T05:00:02.120Z,15.57
2023-04-02T05:02:38.999Z,14.27
2023-04-02T05:05:20.442Z,16.92
2023-04-02T05:07:59.094Z,15.23
2023-04-02T05:10:37.939Z,17.13
2023-04-02T05:13:16.121Z,17.40
2023-04-02T05:15:54.024Z,18.05
2023-04-02T05:18:29.602Z,15.30
2023-04-02T05:21:06.910Z,14.90
2023-04-02T05:23:45.702Z,16.98
2023-04-02T05:26:20.533Z,16.65
2023-04-02T05:28:56.895Z,17.73
2023-04-02T05:31:31.065Z,16.85
2023-04-02T05:33:59.798Z,15.38
2023-04-02T05:36:31.262Z,16.23
2023-04-02T05:41:41.502Z,14.82
2023-04-02T05:44:20.443Z,15.82
2023-04-02T05:46:56.027Z,18.05
2023-04-02T05:49:33.414Z,17.48
2023-04-02T05:52:05.165Z,16.10
2023-04-02T05:54:43.751Z,17.87
2023-04-02T05:57:20.483Z,17.98
2023-04-02T05:59:55.009Z,18.80
2023-04-02T06:02:31.702Z,19.70
2023-04-02T06:05:06.385Z,20.45
2023-04-02T06:07:46.421Z,21.80
2023-04-02T06:10:24.822Z,19.95
2023-04-02T06:13:03.267Z,19.85
2023-04-02T06:15:37.855Z,21.50
2023-04-02T06:18:22.084Z,20.88
2023-04-02T06:20:51.547Z,23.13
2023-04-02T06:23:30.827Z,22.30
2023-04-02T06:26:06.805Z,20.25
2023-04-02T06:28:46.279Z,20.90
2023-04-02T06:31:32.075Z,20.40
2023-04-02T06:34:00.971Z,18.83
2023-04-02T06:36:29.790Z,18.30
2023-04-02T06:39:09.117Z,18.55
2023-04-02T06:41:39.768Z,20.85
2023-04-02T06:44:33.947Z,18.15
2023-04-02T06:47:31.560Z,18.17
2023-04-02T06:50:08.014Z,17.58
2023-04-02T06:52:41.413Z,18.23
2023-04-02T06:55:33.990Z,17.10
2023-04-02T06:58:04.155Z,16.88
2023-04-02T07:00:38.245Z,17.17
2023-04-02T07:03:16.601Z,17.42
2023-04-02T07:05:45.818Z,16.27
2023-04-02T07:08:14.102Z,16.77
2023-04-02T07:10:42.660Z,17.77
2023-04-02T07:13:16.514Z,18.48
2023-04-02T07:15:46.203Z,18.15
2023-04-02T07:18:26.893Z,20.52
2023-04-02T07:20:56.066Z,18.90
2023-04-02T07:23:25.454Z,18.02
2023-04-02T07:25:55.668Z,19.65
2023-04-02T07:28:25.765Z,23.67
2023-04-02T07:30:54.707Z,23.65
2023-04-02T07:33:26.723Z,21.42
2023-04-02T07:35:58.259Z,23.98
2023-04-02T07:38:26.831Z,22.27
2023-04-02T07:40:54.948Z,24.08
2023-04-02T07:43:26.531Z,19.27
2023-04-02T07:45:54.707Z,19.25
2023-04-02T07:48:23.325Z,20.52
2023-04-02T07:50:51.742Z,21.33
2023-04-02T07:53:30.686Z,19.05
2023-04-02T07:56:01.096Z,22.52
2023-04-02T07:58:32.279Z,24.50
2023-04-02T08:01:03.732Z,24.38
2023-04-02T08:03:32.796Z,23.80
2023-04-02T08:06:04.006Z,25.00
2023-04-02T08:08:32.167Z,21.92
2023-04-02T08:11:00.493Z,24.48
2023-04-02T08:13:31.923Z,26.50
2023-04-02T08:16:00.598Z,26.00
2023-04-02T08:18:29.225Z,25.73
2023-04-02T08:20:58.370Z,28.65
2023-04-02T08:23:27.435Z,23.98
2023-04-02T08:25:56.524Z,25.73
2023-04-02T08:28:24.741Z,23.65
2023-04-02T08:30:54.328Z,23.40
2023-04-02T08:33:22.550Z,24.80
2023-04-02T08:35:51.551Z,28.20
2023-04-02T08:38:22.701Z,21.10
2023-04-02T08:40:53.319Z,24.67
2023-04-02T08:43:57.023Z,24.27
2023-04-02T08:46:31.698Z,21.60
2023-04-02T08:49:03.628Z,23.48
2023-04-02T08:51:37.329Z,23.90
2023-04-02T08:54:17.446Z,24.88
2023-04-02T08:56:53.244Z,21.33
2023-04-02T08:59:31.756Z,25.65
2023-04-02T09:02:15.372Z,22.65
2023-04-02T09:04:46.051Z,22.45
2023-04-02T09:07:16.972Z,23.60
2023-04-02T09:09:49.817Z,22.25
2023-04-02T09:12:21.839Z,22.23
2023-04-02T09:15:12.261Z,20.02
2023-04-02T09:17:52.899Z,20.23
2023-04-02T09:20:26.315Z,18.30
2023-04-02T09:22:56.666Z,18.45
2023-04-02T09:25:28.763Z,17.65
2023-04-02T09:28:00.113Z,18.85
2023-04-02T09:30:47.922Z,17.20
2023-04-02T09:33:17.474Z,18.67
2023-04-02T09:35:57.867Z,16.80
2023-04-02T09:38:30.578Z,18.55
2023-04-02T09:43:31.903Z,19.55
2023-04-02T09:46:04.053Z,21.10
2023-04-02T09:48:37.784Z,19.27
2023-04-02T09:51:13.967Z,20.88
2023-04-02T09:53:45.951Z,19.83
2023-04-02T09:56:18.394Z,20.30
2023-04-02T09:59:02.593Z,18.73
2023-04-02T10:01:33.761Z,19.15
2023-04-02T10:04:05.920Z,18.92
2023-04-02T10:06:35.573Z,18.63
2023-04-02T10:09:29.671Z,18.60
2023-04-02T10:11:59.809Z,18.05
2023-04-02T10:14:34.178Z,18.25
2023-04-02T10:17:11.856Z,19.20
2023-04-02T10:19:46.558Z,18.67
2023-04-02T10:22:18.632Z,17.98
2023-04-02T10:24:47.403Z,19.60
2023-04-02T10:27:29.561Z,17.17
2023-04-02T10:30:20.057Z,19.10
2023-04-02T10:32:52.789Z,16.73
2023-04-02T10:35:44.883Z,16.67
2023-04-02T10:38:28.849Z,17.70
2023-04-02T10:41:01.752Z,15.60
2023-04-02T10:44:17.066Z,14.45
2023-04-02T10:46:59.464Z,15.88
2023-04-02T10:49:39.341Z,16.70
2023-04-02T10:52:15.609Z,14.55
2023-04-02T10:54:50.166Z,14.43
2023-04-02T10:57:38.246Z,12.52
2023-04-02T11:00:19.283Z,14.63
2023-04-02T11:02:58.104Z,11.45
2023-04-02T11:05:40.109Z,11.52
2023-04-02T11:08:18.255Z,11.63
2023-04-02T11:10:51.746Z,12.00
2023-04-02T11:13:25.471Z,11.95
2023-04-02T11:15:54.629Z,11.52
2023-04-02T11:18:34.039Z,12.35
2023-04-02T11:21:06.339Z,11.35
2023-04-02T11:23:40.595Z,10.38
2023-04-02T11:26:38.708Z,10.13
2023-04-02T11:29:32.233Z,10.25
2023-04-02T11:32:28.632Z,10.40
2023-04-02T11:35:40.671Z,10.60
2023-04-02T11:38:52.965Z,10.05
2023-04-02T11:42:02.641Z,10.18
2023-04-02T11:44:31.992Z,8.07
2023-04-02T11:47:17.736Z,7.57
2023-04-02T11:50:07.663Z,8.90
2023-04-02T11:52:51.648Z,7.40
2023-04-02T11:55:30.550Z,7.55
2023-04-02T11:58:39.606Z,7.70
2023-04-02T12:01:55.452Z,8.88
2023-04-02T12:04:54.627Z,8.40
2023-04-02T12:08:08.234Z,8.05
2023-04-02T12:10:57.646Z,7.47
2023-04-02T12:13:58.508Z,7.05
2023-04-02T12:16:31.276Z,6.85
2023-04-02T12:19:00.482Z,7.03
2023-04-02T12:21:30.529Z,6.85
2023-04-02T12:24:01.803Z,6.43
2023-04-02T12:26:38.808Z,6.28
2023-04-02T12:29:27.055Z,6.53
2023-04-02T12:31:57.077Z,6.00
2023-04-02T12:34:28.291Z,5.60
2023-04-02T12:37:02.487Z,6.22
2023-04-02T12:39:31.696Z,6.78
2023-04-02T12:42:01.677Z,7.25
2023-04-02T12:44:31.708Z,6.13
2023-04-02T12:47:00.470Z,6.53
2023-04-02T12:49:37.604Z,6.28
2023-04-02T12:52:08.658Z,6.72
2023-04-02T12:54:44.902Z,6.10
2023-04-02T12:57:38.968Z,6.55
2023-04-02T13:00:34.383Z,6.75
2023-04-02T13:03:23.518Z,6.38
2023-04-02T13:05:56.148Z,7.32
2023-04-02T13:10:58.308Z,6.60
2023-04-02T13:13:33.398Z,6.47
2023-04-02T13:16:22.515Z,5.72
2023-04-02T13:18:51.536Z,6.50
2023-04-02T13:21:28.746Z,6.55
2023-04-02T13:23:57.352Z,6.50
2023-04-02T13:26:28.529Z,6.50
2023-04-02T13:29:01.399Z,6.50
2023-04-02T13:31:30.661Z,6.47
2023-04-02T13:33:59.474Z,6.30
2023-04-02T13:36:29.254Z,6.60
2023-04-02T13:38:57.807Z,6.60
2023-04-02T13:41:28.925Z,7.05
2023-04-02T13:44:01.323Z,6.80
2023-04-02T13:46:32.493Z,6.32
2023-04-02T13:49:00.840Z,5.82
2023-04-02T13:51:37.222Z,6.70
2023-04-02T13:54:11.738Z,5.63
2023-04-02T13:56:39.866Z,5.70
2023-04-02T13:59:09.479Z,6.40
2023-04-02T14:01:38.510Z,5.70
2023-04-02T14:04:07.415Z,5.60
2023-04-02T14:07:21.657Z,5.30
2023-04-02T14:10:08.511Z,5.40
2023-04-02T14:13:00.275Z,5.35
2023-04-02T14:15:45.557Z,4.88
2023-04-02T14:18:42.048Z,4.85
2023-04-02T14:21:22.404Z,4.22
2023-04-02T14:24:08.853Z,4.88
2023-04-02T14:26:47.444Z,4.72
2023-04-02T14:29:23.955Z,4.40
2023-04-02T14:32:04.230Z,4.57
2023-04-02T14:34:43.318Z,4.93
2023-04-02T14:37:21.597Z,4.60
2023-04-02T14:40:05.555Z,4.28
2023-04-02T14:42:41.492Z,4.57
2023-04-02T14:45:18.384Z,3.92
2023-04-02T14:47:53.035Z,4.78
2023-04-02T14:50:27.961Z,4.50
2023-04-02T14:53:02.600Z,4.57
2023-04-02T14:55:38.323Z,4.50
2023-04-02T14:58:19.855Z,4.47
2023-04-02T15:01:00.396Z,4.15
2023-04-02T15:03:36.506Z,4.13
2023-04-02T15:06:12.198Z,3.97
2023-04-02T15:08:52.281Z,4.07
2023-04-02T15:11:30.331Z,4.00
2023-04-02T15:14:07.898Z,4.35
2023-04-02T15:16:36.400Z,4.40
2023-04-02T15:19:13.815Z,4.10
2023-04-02T15:22:05.265Z,3.72
2023-04-02T15:24:50.588Z,3.95
2023-04-02T15:27:53.129Z,3.70
2023-04-02T15:30:25.963Z,3.47
2023-04-02T15:32:57.034Z,3.00
2023-04-02T15:35:38.402Z,3.15
2023-04-02T15:38:12.912Z,3.10
2023-04-02T15:40:56.663Z,3.22
2023-04-02T15:43:30.273Z,3.78
2023-04-02T15:46:17.600Z,3.35
2023-04-02T15:49:21.019Z,3.60
2023-04-02T15:52:06.565Z,2.72
2023-04-02T15:54:57.448Z,4.93
2023-04-02T15:57:51.007Z,3.65
2023-04-02T16:00:30.637Z,3.70
2023-04-02T16:03:23.724Z,3.08
2023-04-02T16:08:46.913Z,3.83
2023-04-02T16:11:16.830Z,3.05
2023-04-02T16:13:45.509Z,2.70
2023-04-02T16:16:18.817Z,2.60
2023-04-02T16:18:57.435Z,2.88
2023-04-02T16:21:30.077Z,3.05
2023-04-02T16:26:43.250Z,3.05
2023-04-02T16:29:51.064Z,2.95
2023-04-02T16:32:42.051Z,2.92
2023-04-02T16:35:41.871Z,2.42
2023-04-02T16:38:24.983Z,3.70
2023-04-02T16:41:09.342Z,2.42
2023-04-02T16:43:50.721Z,3.08
2023-04-02T16:46:39.322Z,2.92
2023-04-02T16:49:22.239Z,2.53
2023-04-02T16:52:03.544Z,2.80
2023-04-02T16:54:41.990Z,2.63
2023-04-02T16:57:27.621Z,2.80
2023-04-02T17:00:12.706Z,2.55
2023-04-02T17:02:55.461Z,2.65
2023-04-02T17:05:33.081Z,3.10
2023-04-02T17:08:18.252Z,2.97
2023-04-02T17:10:54.893Z,2.78
2023-04-02T17:13:35.032Z,3.28
2023-04-02T17:16:13.546Z,3.15
2023-04-02T17:18:45.013Z,3.20
2023-04-02T17:21:19.905Z,2.95
2023-04-02T17:23:56.300Z,3.10
2023-04-02T17:26:28.612Z,2.80
2023-04-02T17:29:01.362Z,3.35
2023-04-02T17:34:10.803Z,3.10
2023-04-02T17:36:47.122Z,3.00
2023-04-02T17:39:25.501Z,2.90
2023-04-02T17:42:08.092Z,3.20
2023-04-02T17:44:53.358Z,2.88
2023-04-02T17:47:24.708Z,3.33
2023-04-02T17:50:44.579Z,3.40
2023-04-02T17:53:45.598Z,3.20
2023-04-02T17:56:38.301Z,2.90
2023-04-02T17:59:36.871Z,4.20
2023-04-02T18:02:25.617Z,3.13
2023-04-02T18:05:05.378Z,4.13
2023-04-02T18:07:47.014Z,3.90
2023-04-02T18:10:23.058Z,4.22
2023-04-02T18:13:11.138Z,3.92
2023-04-02T18:16:04.320Z,3.85
2023-04-02T18:19:00.333Z,4.32
2023-04-02T18:21:40.339Z,3.75
2023-04-02T18:24:32.100Z,3.90
2023-04-02T18:27:24.209Z,4.38
2023-04-02T18:30:09.141Z,3.95
2023-04-02T18:33:03.381Z,4.35
2023-04-02T18:35:40.550Z,4.55
2023-04-02T18:38:24.993Z,5.22
2023-04-02T18:41:28.881Z,4.88
2023-04-02T18:44:15.921Z,6.10
2023-04-02T18:46:51.543Z,7.00
2023-04-02T18:49:29.735Z,6.25
2023-04-02T18:52:05.128Z,5.57
2023-04-02T18:54:36.602Z,4.97
2023-04-02T18:57:16.785Z,7.23
2023-04-02T18:59:52.888Z,14.15
2023-04-02T19:02:47.061Z,6.05
2023-04-02T19:05:25.267Z,6.82
2023-04-02T19:08:06.183Z,5.88
2023-04-02T19:10:39.468Z,6.20
2023-04-02T19:13:18.147Z,4.70
2023-04-02T19:16:31.573Z,4.82
2023-04-02T19:19:15.962Z,6.78
2023-04-02T19:22:18.354Z,5.63
2023-04-02T19:25:26.699Z,6.47
2023-04-02T19:28:15.662Z,5.70
2023-04-02T19:34:52.680Z,4.97
2023-04-02T19:37:34.605Z,4.70
2023-04-02T19:40:32.159Z,5.83
2023-04-02T19:43:04.303Z,5.15
2023-04-02T19:45:48.530Z,4.72
2023-04-02T19:48:26.273Z,4.82
2023-04-02T19:51:02.064Z,4.85
2023-04-02T19:53:30.924Z,4.68
2023-04-02T19:56:04.853Z,4.80
2023-04-02T19:58:36.504Z,5.00
2023-04-02T20:01:10.557Z,4.17
2023-04-02T20:03:40.665Z,4.53
2023-04-02T20:06:11.002Z,5.47
2023-04-02T20:08:41.311Z,4.93
2023-04-02T20:11:30.711Z,4.20
2023-04-02T20:14:02.359Z,4.35
2023-04-02T20:16:33.097Z,4.68
2023-04-02T20:19:04.060Z,5.00
2023-04-02T20:21:40.658Z,4.55
2023-04-02T20:24:10.591Z,4.75
2023-04-02T20:26:46.412Z,4.80
2023-04-02T20:29:17.011Z,4.90
2023-04-02T20:31:46.979Z,5.22
2023-04-02T20:34:26.051Z,5.72
2023-04-02T20:36:54.967Z,5.10
2023-04-02T20:39:24.156Z,6.07
2023-04-02T20:41:54.173Z,4.95
2023-04-02T20:44:22.798Z,6.32
2023-04-02T20:46:51.103Z,6.63
2023-04-02T20:49:19.349Z,5.60
2023-04-02T20:51:48.491Z,6.22
2023-04-02T20:54:16.880Z,6.82
2023-04-02T20:56:45.730Z,6.25
2023-04-02T20:59:15.413Z,4.97
2023-04-02T21:01:44.198Z,5.22
2023-04-02T21:04:13.024Z,4.60
2023-04-02T21:06:42.092Z,4.85
2023-04-02T21:09:15.608Z,4.45
2023-04-02T21:11:44.229Z,5.20
2023-04-02T21:14:14.004Z,4.93
2023-04-02T21:16:42.461Z,4.88
2023-04-02T21:19:11.356Z,5.55
2023-04-02T21:21:41.031Z,6.35
2023-04-02T21:24:10.922Z,5.40
2023-04-02T21:26:42.358Z,5.32
2023-04-02T21:29:14.573Z,5.47
2023-04-02T21:31:44.143Z,5.35
2023-04-02T21:34:16.509Z,5.03
2023-04-02T21:36:46.973Z,4.57
2023-04-02T21:39:19.948Z,5.65
2023-04-02T21:41:51.039Z,5.18
2023-04-02T21:44:22.520Z,4.75
2023-04-02T21:46:53.107Z,5.05
2023-04-02T21:49:23.849Z,4.97
2023-04-02T21:51:52.383Z,4.78
2023-04-02T21:54:20.643Z,4.55
2023-04-02T21:56:49.468Z,4.53
2023-04-02T21:59:19.978Z,5.25
2023-04-02T22:01:50.354Z,4.65
2023-04-02T22:04:20.845Z,5.10
2023-04-02T22:06:50.077Z,4.55
2023-04-02T22:09:22.266Z,4.30
2023-04-02T22:11:53.985Z,4.20
2023-04-02T22:14:23.711Z,4.47
2023-04-02T22:16:52.339Z,4.43
2023-04-02T22:19:20.664Z,4.55
2023-04-02T22:21:49.227Z,4.65
2023-04-02T22:24:21.888Z,4.32
2023-04-02T22:29:18.758Z,4.30
2023-04-02T22:31:48.583Z,4.85
2023-04-02T22:34:16.804Z,4.18
2023-04-02T22:36:45.001Z,4.57
2023-04-02T22:39:14.959Z,4.88
2023-04-02T22:41:43.282Z,4.53
2023-04-02T22:44:17.252Z,4.55
2023-04-02T22:46:47.211Z,4.90
2023-04-02T22:49:18.967Z,4.15
2023-04-02T22:51:47.549Z,4.13
2023-04-02T22:54:15.963Z,4.45
2023-04-02T22:56:44.199Z,4.57
2023-04-02T22:59:12.373Z,4.35
2023-04-02T23:01:40.887Z,4.10
2023-04-02T23:04:10.548Z,4.95
2023-04-02T23:06:38.693Z,5.38
2023-04-02T23:09:06.885Z,4.68
2023-04-02T23:11:35.072Z,5.07
2023-04-02T23:14:03.221Z,4.18
2023-04-02T23:16:31.765Z,4.35
2023-04-02T23:19:00.316Z,4.53
2023-04-02T23:21:30.727Z,4.00
2023-04-02T23:23:58.824Z,4.32
2023-04-02T23:26:31.200Z,4.95
2023-04-02T23:29:00.624Z,8.52
2023-04-02T23:31:29.604Z,5.72
2023-04-02T23:33:58.464Z,6.38
2023-04-02T23:36:30.398Z,6.63
2023-04-02T23:39:01.414Z,3.90
2023-04-02T23:41:31.594Z,4.28
2023-04-02T23:44:00.798Z,3.03
2023-04-02T23:46:30.496Z,3.53
2023-04-02T23:49:00.635Z,2.63
2023-04-02T23:51:32.393Z,3.30
2023-04-02T23:54:01.260Z,2.67
2023-04-02T23:56:30.053Z,3.00
2023-04-02T23:58:58.286Z,2.92
